createdAt,value
2018-03-29T00:01:19.151Z,6.43
2018-03-29T00:03:48.189Z,6.38
2018-03-29T00:06:17.199Z,6.29
2018-03-29T00:08:46.321Z,6.16
2018-03-29T00:11:15.419Z,6.11
2018-03-29T00:13:44.505Z,5.99
2018-03-29T00:16:13.623Z,5.99
2018-03-29T00:18:42.765Z,5.92
2018-03-29T00:21:11.761Z,6.00
2018-03-29T00:23:40.889Z,5.91
2018-03-29T00:26:09.857Z,5.90
2018-03-29T00:28:39.008Z,5.81
2018-03-29T00:31:08.051Z,5.70
2018-03-29T00:33:37.038Z,5.62
2018-03-29T00:36:06.209Z,5.57
2018-03-29T00:38:35.235Z,5.67
2018-03-29T00:41:04.224Z,5.61
2018-03-29T00:43:33.209Z,5.56
2018-03-29T00:46:03.281Z,5.41
2018-03-29T00:48:32.398Z,5.55
2018-03-29T00:51:01.729Z,5.34
2018-03-29T00:53:42.109Z,5.29
2018-03-29T00:56:11.604Z,5.23
2018-03-29T00:58:40.825Z,5.22
2018-03-29T01:01:10.137Z,5.15
2018-03-29T01:03:39.511Z,5.24
2018-03-29T01:06:09.434Z,5.04
2018-03-29T01:08:38.653Z,4.89
2018-03-29T01:11:07.974Z,4.82
2018-03-29T01:13:37.174Z,4.81
2018-03-29T01:16:06.466Z,4.76
2018-03-29T01:18:35.685Z,4.75
2018-03-29T01:21:05.169Z,4.74
2018-03-29T01:23:34.313Z,4.71
2018-03-29T01:26:03.509Z,4.75
2018-03-29T01:28:32.864Z,5.25
2018-03-29T01:31:02.223Z,4.97
2018-03-29T01:33:31.418Z,5.11
2018-03-29T01:36:00.959Z,4.83
2018-03-29T01:38:30.353Z,5.18
2018-03-29T01:40:59.660Z,5.37
2018-03-29T01:43:29.452Z,5.00
2018-03-29T01:45:58.594Z,4.91
2018-03-29T01:48:27.726Z,4.93
2018-03-29T01:50:56.817Z,4.91
2018-03-29T01:53:26.089Z,4.91
2018-03-29T01:55:55.357Z,4.92
2018-03-29T01:58:24.417Z,4.89
2018-03-29T02:00:53.783Z,4.71
2018-03-29T02:03:22.811Z,4.62
2018-03-29T02:05:52.042Z,4.58
2018-03-29T02:08:21.366Z,4.47
2018-03-29T02:10:50.598Z,4.41
2018-03-29T02:13:19.758Z,4.42
2018-03-29T02:15:48.937Z,4.37
2018-03-29T02:18:18.461Z,4.39
2018-03-29T02:20:47.651Z,4.33
2018-03-29T02:23:16.805Z,4.31
2018-03-29T02:25:46.753Z,4.28
2018-03-29T02:28:15.957Z,4.38
2018-03-29T02:30:45.130Z,4.24
2018-03-29T02:33:14.315Z,4.30
2018-03-29T02:35:43.673Z,4.26
2018-03-29T02:38:12.842Z,4.36
2018-03-29T02:40:42.165Z,4.43
2018-03-29T02:43:11.216Z,4.84
2018-03-29T02:45:40.519Z,4.36
2018-03-29T02:48:09.658Z,4.23
2018-03-29T02:50:38.698Z,4.21
2018-03-29T02:53:07.851Z,4.09
2018-03-29T02:55:37.225Z,4.22
2018-03-29T02:58:06.357Z,4.07
2018-03-29T03:00:35.429Z,4.35
2018-03-29T03:03:04.597Z,4.11
2018-03-29T03:05:33.790Z,4.04
2018-03-29T03:08:03.030Z,4.02
2018-03-29T03:10:32.229Z,4.03
2018-03-29T03:13:01.509Z,4.06
2018-03-29T03:15:30.758Z,4.13
2018-03-29T03:17:59.988Z,4.15
2018-03-29T03:20:29.191Z,4.20
2018-03-29T03:22:58.613Z,4.12
2018-03-29T03:25:27.932Z,4.36
2018-03-29T03:27:57.110Z,4.15
2018-03-29T03:30:26.287Z,4.08
2018-03-29T03:32:55.581Z,4.00
2018-03-29T03:35:24.841Z,3.94
2018-03-29T03:37:54.110Z,3.91
2018-03-29T03:40:23.246Z,3.93
2018-03-29T03:42:52.473Z,3.87
2018-03-29T03:45:21.970Z,3.81
2018-03-29T03:47:51.206Z,4.04
2018-03-29T03:50:20.386Z,4.04
2018-03-29T03:52:49.517Z,3.95
2018-03-29T03:55:18.579Z,3.85
2018-03-29T03:57:47.778Z,3.92
2018-03-29T04:00:16.937Z,4.06
2018-03-29T04:02:46.324Z,4.05
2018-03-29T04:05:15.402Z,3.92
2018-03-29T04:07:44.615Z,3.93
2018-03-29T04:10:13.771Z,4.03
2018-03-29T04:12:42.914Z,4.27
2018-03-29T04:15:13.093Z,5.06
2018-03-29T04:17:42.283Z,5.44
2018-03-29T04:20:11.409Z,5.01
2018-03-29T04:22:40.802Z,4.77
2018-03-29T04:25:10.066Z,4.74
2018-03-29T04:27:39.345Z,4.82
2018-03-29T04:30:08.478Z,4.88
2018-03-29T04:32:37.773Z,4.85
2018-03-29T04:35:06.927Z,4.89
2018-03-29T04:37:36.834Z,5.03
2018-03-29T04:40:06.352Z,5.06
2018-03-29T04:42:36.215Z,5.27
2018-03-29T04:45:05.564Z,5.32
2018-03-29T04:47:34.762Z,5.41
2018-03-29T04:50:03.930Z,5.28
2018-03-29T04:52:33.613Z,5.24
2018-03-29T04:55:02.970Z,5.30
2018-03-29T04:57:32.271Z,5.33
2018-03-29T05:00:01.470Z,5.34
2018-03-29T05:02:31.331Z,5.37
2018-03-29T05:05:00.526Z,5.48
2018-03-29T05:07:29.876Z,5.36
2018-03-29T05:09:59.494Z,5.50
2018-03-29T05:12:28.684Z,5.48
2018-03-29T05:14:57.988Z,5.62
2018-03-29T05:17:27.223Z,6.08
2018-03-29T05:19:56.534Z,6.04
2018-03-29T05:22:25.682Z,6.16
2018-03-29T05:24:54.761Z,6.20
2018-03-29T05:27:26.067Z,6.42
2018-03-29T05:29:55.281Z,6.40
2018-03-29T05:32:24.641Z,6.38
2018-03-29T05:34:54.015Z,6.70
2018-03-29T05:37:23.200Z,6.55
2018-03-29T05:39:52.331Z,6.44
2018-03-29T05:42:21.538Z,6.47
2018-03-29T05:44:50.822Z,6.84
2018-03-29T05:47:19.966Z,7.59
2018-03-29T05:49:49.114Z,6.96
2018-03-29T05:52:18.343Z,6.74
2018-03-29T05:54:47.558Z,6.78
2018-03-29T05:57:16.842Z,7.03
2018-03-29T05:59:46.076Z,6.82
2018-03-29T06:02:15.370Z,6.72
2018-03-29T06:04:44.497Z,6.72
2018-03-29T06:07:13.550Z,6.70
2018-03-29T06:09:43.428Z,6.81
2018-03-29T06:12:12.617Z,6.73
2018-03-29T06:14:45.677Z,6.79
2018-03-29T06:17:21.058Z,7.04
2018-03-29T06:19:50.203Z,7.08
2018-03-29T06:22:19.210Z,7.16
2018-03-29T06:24:48.457Z,7.15
2018-03-29T06:27:18.278Z,6.96
2018-03-29T06:29:47.543Z,7.01
2018-03-29T06:32:16.722Z,7.14
2018-03-29T06:34:45.881Z,7.08
2018-03-29T06:37:15.075Z,7.01
2018-03-29T06:39:44.221Z,7.16
2018-03-29T06:42:13.542Z,7.19
2018-03-29T06:44:42.682Z,7.25
2018-03-29T06:47:11.823Z,7.31
2018-03-29T06:49:41.137Z,7.40
2018-03-29T06:52:10.410Z,7.45
2018-03-29T06:54:39.611Z,7.47
2018-03-29T06:57:08.707Z,7.64
2018-03-29T06:59:38.011Z,7.87
2018-03-29T07:02:07.215Z,7.95
2018-03-29T07:04:36.402Z,7.73
2018-03-29T07:07:06.509Z,7.86
2018-03-29T07:09:35.977Z,8.14
2018-03-29T07:12:05.121Z,8.38
2018-03-29T07:14:34.843Z,8.80
2018-03-29T07:17:04.210Z,9.18
2018-03-29T07:19:33.447Z,8.78
2018-03-29T07:22:02.655Z,8.33
2018-03-29T07:24:31.733Z,9.25
2018-03-29T07:27:00.869Z,8.96
2018-03-29T07:29:30.245Z,9.78
2018-03-29T07:31:59.443Z,9.44
2018-03-29T07:34:28.657Z,9.24
2018-03-29T07:36:57.990Z,9.29
2018-03-29T07:39:27.349Z,9.84
2018-03-29T07:41:56.435Z,9.74
2018-03-29T07:44:25.575Z,9.89
2018-03-29T07:46:54.750Z,9.16
2018-03-29T07:49:23.880Z,9.58
2018-03-29T07:51:52.913Z,10.28
2018-03-29T07:54:22.235Z,10.05
2018-03-29T07:56:51.368Z,9.71
2018-03-29T07:59:20.745Z,10.07
2018-03-29T08:01:49.913Z,10.26
2018-03-29T08:04:20.096Z,9.93
2018-03-29T08:06:49.329Z,10.27
2018-03-29T08:09:18.495Z,10.08
2018-03-29T08:11:47.534Z,10.06
2018-03-29T08:14:16.749Z,9.60
2018-03-29T08:16:46.293Z,9.93
2018-03-29T08:19:15.543Z,10.23
2018-03-29T08:21:44.679Z,10.74
2018-03-29T08:24:13.888Z,10.77
2018-03-29T08:26:43.149Z,10.19
2018-03-29T08:29:12.231Z,9.89
2018-03-29T08:31:41.430Z,10.10
2018-03-29T08:34:10.628Z,9.86
2018-03-29T08:36:39.857Z,10.40
2018-03-29T08:39:09.071Z,10.49
2018-03-29T08:41:39.300Z,10.14
2018-03-29T08:44:08.739Z,10.48
2018-03-29T08:46:38.206Z,10.33
2018-03-29T08:49:07.400Z,10.87
2018-03-29T08:51:36.702Z,10.76
2018-03-29T08:54:05.954Z,10.95
2018-03-29T08:56:35.185Z,11.25
2018-03-29T08:59:04.346Z,11.40
2018-03-29T09:01:34.055Z,10.94
2018-03-29T09:04:03.415Z,11.50
2018-03-29T09:06:32.700Z,11.38
2018-03-29T09:09:01.997Z,10.91
2018-03-29T09:11:31.270Z,10.72
2018-03-29T09:14:00.358Z,11.74
2018-03-29T09:16:29.635Z,11.54
2018-03-29T09:18:59.273Z,11.57
2018-03-29T09:21:28.353Z,11.80
2018-03-29T09:23:57.750Z,11.80
2018-03-29T09:26:27.079Z,11.96
2018-03-29T09:28:56.318Z,11.32
2018-03-29T09:31:25.367Z,11.26
2018-03-29T09:33:54.704Z,12.09
2018-03-29T09:36:23.803Z,11.74
2018-03-29T09:38:53.010Z,12.48
2018-03-29T09:41:22.063Z,11.97
2018-03-29T09:43:51.254Z,11.95
2018-03-29T09:46:21.014Z,11.85
2018-03-29T09:48:50.167Z,11.74
2018-03-29T09:51:19.358Z,11.87
2018-03-29T09:53:48.770Z,12.30
2018-03-29T09:56:18.018Z,12.09
2018-03-29T09:58:47.197Z,11.57
2018-03-29T10:01:16.512Z,11.99
2018-03-29T10:03:51.287Z,12.01
2018-03-29T10:06:25.991Z,12.34
2018-03-29T10:08:55.391Z,12.41
2018-03-29T10:11:24.568Z,12.73
2018-03-29T10:13:53.887Z,13.01
2018-03-29T10:16:23.321Z,12.85
2018-03-29T10:18:52.485Z,12.76
2018-03-29T10:21:21.757Z,12.88
2018-03-29T10:23:50.946Z,12.82
2018-03-29T10:26:20.372Z,13.04
2018-03-29T10:28:49.527Z,13.25
2018-03-29T10:31:18.723Z,12.97
2018-03-29T10:33:47.914Z,13.06
2018-03-29T10:36:17.053Z,13.29
2018-03-29T10:38:46.398Z,13.41
2018-03-29T10:41:15.669Z,13.68
2018-03-29T10:43:44.647Z,13.52
2018-03-29T10:46:14.168Z,14.13
2018-03-29T10:48:43.513Z,13.44
2018-03-29T10:51:12.876Z,13.66
2018-03-29T10:53:42.170Z,13.82
2018-03-29T10:56:11.274Z,13.74
2018-03-29T10:58:40.901Z,13.90
2018-03-29T11:01:10.129Z,13.88
2018-03-29T11:03:39.188Z,14.13
2018-03-29T11:06:09.097Z,14.04
2018-03-29T11:08:38.359Z,13.56
2018-03-29T11:11:07.445Z,13.87
2018-03-29T11:13:36.680Z,13.90
2018-03-29T11:16:06.038Z,14.24
2018-03-29T11:18:35.237Z,14.06
2018-03-29T11:21:04.342Z,14.49
2018-03-29T11:23:33.526Z,14.09
2018-03-29T11:26:02.778Z,13.58
2018-03-29T11:28:32.049Z,13.17
2018-03-29T11:31:01.116Z,13.84
2018-03-29T11:33:30.467Z,14.39
2018-03-29T11:35:59.740Z,14.49
2018-03-29T11:38:29.081Z,13.99
2018-03-29T11:40:58.174Z,14.37
2018-03-29T11:43:27.480Z,13.91
2018-03-29T11:45:56.679Z,14.08
2018-03-29T11:48:25.913Z,13.89
2018-03-29T11:50:55.804Z,14.11
2018-03-29T11:53:24.998Z,14.74
2018-03-29T11:55:54.187Z,14.50
2018-03-29T11:58:24.153Z,14.66
2018-03-29T12:00:53.549Z,14.95
2018-03-29T12:03:22.912Z,14.76
2018-03-29T12:05:52.274Z,15.02
2018-03-29T12:08:21.616Z,15.13
2018-03-29T12:10:50.704Z,14.94
2018-03-29T12:13:19.867Z,14.48
2018-03-29T12:15:49.122Z,14.98
2018-03-29T12:18:18.363Z,14.56
2018-03-29T12:20:47.657Z,14.63
2018-03-29T12:23:16.986Z,14.35
2018-03-29T12:25:46.050Z,14.27
2018-03-29T12:28:15.410Z,14.12
2018-03-29T12:30:44.646Z,14.60
2018-03-29T12:33:13.741Z,14.16
2018-03-29T12:35:43.090Z,13.54
2018-03-29T12:38:12.382Z,13.25
2018-03-29T12:40:41.552Z,12.48
2018-03-29T12:43:11.010Z,12.08
2018-03-29T12:45:40.150Z,11.97
2018-03-29T12:48:09.282Z,12.18
2018-03-29T12:50:38.517Z,13.00
2018-03-29T12:53:07.642Z,12.50
2018-03-29T12:55:41.887Z,12.26
2018-03-29T12:58:11.702Z,12.58
2018-03-29T13:00:40.973Z,12.45
2018-03-29T13:03:10.128Z,11.73
2018-03-29T13:05:39.318Z,12.46
2018-03-29T13:08:13.841Z,11.69
2018-03-29T13:10:43.766Z,11.68
2018-03-29T13:13:13.109Z,11.87
2018-03-29T13:15:42.359Z,11.70
2018-03-29T13:18:12.254Z,11.70
2018-03-29T13:20:41.525Z,11.81
2018-03-29T13:23:10.880Z,11.29
2018-03-29T13:25:40.288Z,10.91
2018-03-29T13:28:09.321Z,11.34
2018-03-29T13:30:38.683Z,11.51
2018-03-29T13:33:07.978Z,12.07
2018-03-29T13:35:37.161Z,11.40
2018-03-29T13:38:06.332Z,11.91
2018-03-29T13:40:35.413Z,11.26
2018-03-29T13:43:04.659Z,11.25
2018-03-29T13:45:33.846Z,11.18
2018-03-29T13:48:02.968Z,11.37
2018-03-29T13:50:32.213Z,11.98
2018-03-29T13:53:01.567Z,12.42
2018-03-29T13:55:30.713Z,11.86
2018-03-29T13:58:00.166Z,12.09
2018-03-29T14:00:29.350Z,12.13
2018-03-29T14:02:58.637Z,11.64
2018-03-29T14:05:27.806Z,11.94
2018-03-29T14:07:57.073Z,11.29
2018-03-29T14:10:26.270Z,11.46
2018-03-29T14:12:55.614Z,11.98
2018-03-29T14:15:25.802Z,11.47
2018-03-29T14:17:54.947Z,11.90
2018-03-29T14:20:24.294Z,12.12
2018-03-29T14:22:53.641Z,11.83
2018-03-29T14:25:22.843Z,11.73
2018-03-29T14:27:52.082Z,11.25
2018-03-29T14:30:21.287Z,11.77
2018-03-29T14:32:50.378Z,11.54
2018-03-29T14:35:19.907Z,11.98
2018-03-29T14:37:49.085Z,11.98
2018-03-29T14:40:18.338Z,12.30
2018-03-29T14:42:47.448Z,12.94
2018-03-29T14:45:16.786Z,12.90
2018-03-29T14:47:45.989Z,12.51
2018-03-29T14:50:15.143Z,11.36
2018-03-29T14:52:44.350Z,11.70
2018-03-29T14:55:13.584Z,10.78
2018-03-29T14:57:42.986Z,11.25
2018-03-29T15:00:12.283Z,11.44
2018-03-29T15:02:41.321Z,12.17
2018-03-29T15:05:10.783Z,11.90
2018-03-29T15:07:40.043Z,11.41
2018-03-29T15:10:09.258Z,10.89
2018-03-29T15:12:38.425Z,11.26
2018-03-29T15:15:07.889Z,11.52
2018-03-29T15:17:37.200Z,11.59
2018-03-29T15:20:06.387Z,11.37
2018-03-29T15:22:35.448Z,11.90
2018-03-29T15:25:04.498Z,11.97
2018-03-29T15:27:33.810Z,11.91
2018-03-29T15:30:02.831Z,12.85
2018-03-29T15:32:32.280Z,12.93
2018-03-29T15:35:01.322Z,12.61
2018-03-29T15:37:30.621Z,12.28
2018-03-29T15:40:00.146Z,12.22
2018-03-29T15:42:29.317Z,11.38
2018-03-29T15:44:58.557Z,11.47
2018-03-29T15:47:27.658Z,10.83
2018-03-29T15:49:56.813Z,11.00
2018-03-29T15:52:26.079Z,10.45
2018-03-29T15:54:55.249Z,10.70
2018-03-29T15:57:24.271Z,10.84
2018-03-29T15:59:53.397Z,11.20
2018-03-29T16:02:22.507Z,11.40
2018-03-29T16:04:51.603Z,11.16
2018-03-29T16:07:21.058Z,11.73
2018-03-29T16:09:50.105Z,10.76
2018-03-29T16:12:19.299Z,10.80
2018-03-29T16:14:48.446Z,10.62
2018-03-29T16:17:17.669Z,10.84
2018-03-29T16:19:46.885Z,10.49
2018-03-29T16:22:16.040Z,10.28
2018-03-29T16:24:46.182Z,10.24
2018-03-29T16:27:15.156Z,9.67
2018-03-29T16:29:44.355Z,9.81
2018-03-29T16:32:13.385Z,9.28
2018-03-29T16:34:42.594Z,9.39
2018-03-29T16:37:11.725Z,9.00
2018-03-29T16:39:40.942Z,8.82
2018-03-29T16:42:10.310Z,8.71
2018-03-29T16:44:39.406Z,8.62
2018-03-29T16:47:08.551Z,8.72
2018-03-29T16:49:37.814Z,8.56
2018-03-29T16:52:06.977Z,8.52
2018-03-29T16:54:36.217Z,8.73
2018-03-29T16:57:05.588Z,8.95
2018-03-29T16:59:34.833Z,9.07
2018-03-29T17:02:03.887Z,8.53
2018-03-29T17:04:32.979Z,8.45
2018-03-29T17:07:02.067Z,8.59
2018-03-29T17:09:31.186Z,9.26
2018-03-29T17:12:00.380Z,8.75
2018-03-29T17:14:29.573Z,8.57
2018-03-29T17:16:58.684Z,8.25
2018-03-29T17:19:28.030Z,8.00
2018-03-29T17:21:57.313Z,7.99
2018-03-29T17:24:26.481Z,7.98
2018-03-29T17:26:55.506Z,8.13
2018-03-29T17:29:24.609Z,8.04
2018-03-29T17:31:53.751Z,8.10
2018-03-29T17:34:23.045Z,8.03
2018-03-29T17:36:52.196Z,7.83
2018-03-29T17:39:21.394Z,7.77
2018-03-29T17:41:50.665Z,7.65
2018-03-29T17:44:19.858Z,7.75
2018-03-29T17:46:49.194Z,7.87
2018-03-29T17:49:18.562Z,8.19
2018-03-29T17:51:47.838Z,8.55
2018-03-29T17:54:17.127Z,8.35
2018-03-29T17:56:46.381Z,8.41
2018-03-29T17:59:15.547Z,8.15
2018-03-29T18:01:44.739Z,8.11
2018-03-29T18:04:14.234Z,8.08
2018-03-29T18:06:43.342Z,8.10
2018-03-29T18:09:12.587Z,7.87
2018-03-29T18:11:41.587Z,8.47
2018-03-29T18:14:10.602Z,8.18
2018-03-29T18:16:39.765Z,8.20
2018-03-29T18:19:08.770Z,7.88
2018-03-29T18:21:37.929Z,7.98
2018-03-29T18:24:07.190Z,8.06
2018-03-29T18:26:36.379Z,8.00
2018-03-29T18:29:05.775Z,8.18
2018-03-29T18:31:34.919Z,8.09
2018-03-29T18:34:04.427Z,8.44
2018-03-29T18:36:33.696Z,8.37
2018-03-29T18:39:03.054Z,7.96
2018-03-29T18:41:32.091Z,7.77
2018-03-29T18:44:01.153Z,8.04
2018-03-29T18:46:30.364Z,7.97
2018-03-29T18:48:59.535Z,8.18
2018-03-29T18:51:28.866Z,7.69
2018-03-29T18:53:57.980Z,7.78
2018-03-29T18:56:27.250Z,7.70
2018-03-29T18:58:56.501Z,7.66
2018-03-29T19:01:26.780Z,7.64
2018-03-29T19:03:55.921Z,7.58
2018-03-29T19:06:25.076Z,7.68
2018-03-29T19:08:54.374Z,7.60
2018-03-29T19:11:23.449Z,7.40
2018-03-29T19:13:53.136Z,7.35
2018-03-29T19:16:22.382Z,7.22
2018-03-29T19:18:51.452Z,7.26
2018-03-29T19:21:20.962Z,7.30
2018-03-29T19:23:50.086Z,7.38
2018-03-29T19:26:19.213Z,7.33
2018-03-29T19:28:48.476Z,7.30
2018-03-29T19:31:17.746Z,7.31
2018-03-29T19:33:47.053Z,7.25
2018-03-29T19:36:16.259Z,7.20
2018-03-29T19:38:45.545Z,7.23
2018-03-29T19:41:14.723Z,7.30
2018-03-29T19:43:43.957Z,7.19
2018-03-29T19:46:13.128Z,7.14
2018-03-29T19:48:42.205Z,7.22
2018-03-29T19:51:11.319Z,7.23
2018-03-29T19:53:40.427Z,7.12
2018-03-29T19:56:09.738Z,7.18
2018-03-29T19:58:38.971Z,7.48
2018-03-29T20:01:08.138Z,7.22
2018-03-29T20:03:37.228Z,7.29
2018-03-29T20:06:06.451Z,7.26
2018-03-29T20:08:35.579Z,7.12
2018-03-29T20:11:05.410Z,7.07
2018-03-29T20:13:34.625Z,7.23
2018-03-29T20:16:04.070Z,7.06
2018-03-29T20:18:33.133Z,7.12
2018-03-29T20:21:02.401Z,7.40
2018-03-29T20:23:31.877Z,7.27
2018-03-29T20:26:01.205Z,7.45
2018-03-29T20:28:30.259Z,7.26
2018-03-29T20:30:59.411Z,7.25
2018-03-29T20:33:28.657Z,7.21
2018-03-29T20:35:57.950Z,7.09
2018-03-29T20:38:27.102Z,7.11
2018-03-29T20:40:56.422Z,7.11
2018-03-29T20:43:25.647Z,7.31
2018-03-29T20:45:55.361Z,7.29
2018-03-29T20:48:24.554Z,7.33
2018-03-29T20:50:53.615Z,7.27
2018-03-29T20:53:22.806Z,7.17
2018-03-29T20:55:52.052Z,7.55
2018-03-29T20:58:21.401Z,7.34
2018-03-29T21:00:50.604Z,7.06
2018-03-29T21:03:19.789Z,7.20
2018-03-29T21:05:49.221Z,7.13
2018-03-29T21:08:18.442Z,7.51
2018-03-29T21:10:47.599Z,7.48
2018-03-29T21:13:16.833Z,7.09
2018-03-29T21:15:46.054Z,7.01
2018-03-29T21:18:15.190Z,6.87
2018-03-29T21:20:44.396Z,6.75
2018-03-29T21:23:13.478Z,6.93
2018-03-29T21:25:42.846Z,6.83
2018-03-29T21:28:12.244Z,6.63
2018-03-29T21:30:41.491Z,6.53
2018-03-29T21:33:10.887Z,6.42
2018-03-29T21:35:40.257Z,6.29
2018-03-29T21:38:10.257Z,6.20
2018-03-29T21:40:39.567Z,6.21
2018-03-29T21:43:08.680Z,6.23
2018-03-29T21:45:37.873Z,6.18
2018-03-29T21:48:07.101Z,6.13
2018-03-29T21:50:36.254Z,6.05
2018-03-29T21:53:05.433Z,5.91
2018-03-29T21:55:35.427Z,5.90
2018-03-29T21:58:04.876Z,5.94
2018-03-29T22:00:34.199Z,5.90
2018-03-29T22:03:03.417Z,6.11
2018-03-29T22:05:32.785Z,6.17
2018-03-29T22:08:01.918Z,6.18
2018-03-29T22:10:31.216Z,6.03
2018-03-29T22:13:00.559Z,6.20
2018-03-29T22:15:29.713Z,6.10
2018-03-29T22:17:58.965Z,5.91
2018-03-29T22:20:28.243Z,5.83
2018-03-29T22:22:57.419Z,5.74
2018-03-29T22:25:26.569Z,5.79
2018-03-29T22:27:55.754Z,5.62
2018-03-29T22:30:24.933Z,5.53
2018-03-29T22:32:54.138Z,5.55
2018-03-29T22:35:23.212Z,5.44
2018-03-29T22:37:52.446Z,5.45
2018-03-29T22:40:21.494Z,5.42
2018-03-29T22:42:50.794Z,5.41
2018-03-29T22:45:20.044Z,5.31
2018-03-29T22:47:49.195Z,5.22
2018-03-29T22:50:18.417Z,5.30
2018-03-29T22:52:47.549Z,5.41
2018-03-29T22:55:16.794Z,5.62
2018-03-29T22:57:45.887Z,5.43
2018-03-29T23:00:15.121Z,5.31
2018-03-29T23:02:43.797Z,5.48
2018-03-29T23:05:12.967Z,5.37
2018-03-29T23:07:42.175Z,5.32
2018-03-29T23:10:11.429Z,5.22
2018-03-29T23:12:40.517Z,5.23
2018-03-29T23:17:44.949Z,5.09
2018-03-29T23:20:14.054Z,5.18
2018-03-29T23:22:43.186Z,5.23
2018-03-29T23:25:12.550Z,5.21
2018-03-29T23:27:41.681Z,5.22
2018-03-29T23:30:10.886Z,5.25
2018-03-29T23:32:40.192Z,5.18
2018-03-29T23:35:09.412Z,5.20
2018-03-29T23:37:38.622Z,5.30
2018-03-29T23:40:08.011Z,5.33
2018-03-29T23:42:37.282Z,5.32
2018-03-29T23:45:06.646Z,5.32
2018-03-29T23:47:36.534Z,5.30
2018-03-29T23:50:05.809Z,5.30
2018-03-29T23:52:34.955Z,5.32
2018-03-29T23:55:04.297Z,5.28
2018-03-29T23:57:33.498Z,5.15
